• Join FlightAware (Why Join?)
  • Login
  • US Flag 
02:40PM EST


 

Airport Tracker/Info


-or-


 

Live Flight TrackerFlight Track Log ✈ N483DA ✈ 25-Jun-2013 ✈ KBOW - KSFB

Flight Track Log - Related Links

Times and Time Zones

All times are in EDT time to prevent confusion due to time zone crossing. See the N483DA flight status page for this flight to view local times or setup timezone preferences in your user account.

Time Position Orientation Groundspeed Altitude Reporting Facility
EDT Latitude Longitude Course Direction KTS MPH feet Rate Location/Type
01:38PM 27.9833 -81.7667 360° North 96 110 1,200  Level Tampa TRACON
01:39PM 28.0000 -81.7667 360° North 93 107 1,700 559 Climbing Orlando TRACON
01:40PM 28.0333 -81.7833 336° Northwest 105 121 2,300 545 Climbing Orlando TRACON
01:41PM 28.0500 -81.7667 41° Northeast 105 121 2,900 350 Climbing Orlando TRACON
01:42PM 28.0833 -81.7500 24° Northeast 113 130 3,000  Climbing Orlando TRACON
01:43PM 28.1167 -81.7333 24° Northeast 129 148 2,900  Descending Orlando TRACON
01:44PM 28.1667 -81.7167 16° North 129 148 3,000 48 Climbing Orlando TRACON
01:45PM 28.1833 -81.7000 41° Northeast 128 147 3,000  Level Orlando TRACON
01:46PM 28.2167 -81.7000 360° North 123 142 3,000  Level Orlando TRACON
01:47PM 28.2500 -81.6833 24° Northeast 126 145 3,000  Level Orlando TRACON
01:48PM 28.2833 -81.6667 24° Northeast 133 153 3,000 -53 Level Orlando TRACON
01:49PM 28.3167 -81.6500 24° Northeast 129 148 2,900 -50 Descending Orlando TRACON
01:50PM 28.3500 -81.6500 360° North 123 142 2,900 50 Level Orlando TRACON
01:51PM 28.3833 -81.6333 24° Northeast 130 150 3,000 53 Climbing Orlando TRACON
01:52PM 28.4167 -81.6167 24° Northeast 131 151 3,000 -50 Level Orlando TRACON
01:53PM 28.4500 -81.6000 24° Northeast 131 151 2,900 -50 Descending Orlando TRACON
01:54PM 28.4833 -81.5833 24° Northeast 130 150 2,900  Level Orlando TRACON
01:55PM 28.5167 -81.5667 24° Northeast 123 142 2,900 45 Level Orlando TRACON
01:56PM 28.5667 -81.5500 16° North 128 147 3,000 50 Climbing Orlando TRACON
01:57PM 28.6000 -81.5500 360° North 138 159 3,000  Level Orlando TRACON
01:58PM 28.6333 -81.5500 360° North 139 160 3,000 -182 Level Orlando TRACON
01:59PM 28.6667 -81.5167 41° Northeast 131 151 2,600 -421 Descending Orlando TRACON
02:00PM 28.6833 -81.5000 41° Northeast 126 145 2,200 -412 Descending Orlando TRACON
02:01PM 28.7167 -81.4833 24° Northeast 122 140 1,900 -100 Descending Orlando TRACON
02:02PM 28.7333 -81.4500 60° Northeast 109 125 2,000 -136 Climbing Orlando TRACON
02:03PM 28.7667 -81.4333 24° Northeast 121 139 1,600 -182 Descending Orlando TRACON
02:04PM 28.7833 -81.4000 60° Northeast 108 124 1,600  Level Orlando TRACON
02:05PM 28.7833 -81.3667 90° East 110 127 1,600 -99 Level Orlando TRACON
02:06PM 28.7833 -81.3333 90° East 103 119 1,400 -409 Descending Orlando TRACON
02:08PM 28.7833 -81.3000 90° East 88 101 700 -583 Descending Orlando TRACON